createdAt,value
2019-01-31T00:01:41.355Z,99.90
2019-01-31T00:05:12.827Z,99.90
2019-01-31T00:08:45.528Z,99.90
2019-01-31T00:12:17.124Z,99.90
2019-01-31T00:14:59.385Z,99.90
2019-01-31T00:18:08.716Z,99.90
2019-01-31T00:21:33.422Z,99.90
2019-01-31T00:25:05.329Z,99.90
2019-01-31T00:28:18.477Z,99.90
2019-01-31T00:31:15.807Z,99.90
2019-01-31T00:34:32.063Z,99.90
2019-01-31T00:37:43.563Z,99.90
2019-01-31T00:41:01.705Z,99.90
2019-01-31T00:44:02.651Z,99.90
2019-01-31T00:47:01.536Z,99.90
2019-01-31T00:49:54.353Z,99.90
2019-01-31T00:53:22.277Z,99.90
2019-01-31T00:56:32.524Z,99.90
2019-01-31T00:59:56.179Z,99.90
2019-01-31T01:03:07.173Z,99.90
2019-01-31T01:06:12.824Z,99.90
2019-01-31T01:09:40.935Z,99.90
2019-01-31T01:13:12.873Z,99.90
2019-01-31T01:16:24.544Z,99.90
2019-01-31T01:19:37.098Z,99.90
2019-01-31T01:23:16.707Z,99.90
2019-01-31T01:26:31.857Z,99.90
2019-01-31T01:29:27.434Z,99.90
2019-01-31T01:32:16.968Z,99.90
2019-01-31T01:36:05.204Z,99.90
2019-01-31T01:38:59.907Z,99.90
2019-01-31T01:42:20.062Z,99.90
2019-01-31T01:45:53.808Z,99.90
2019-01-31T01:48:55.709Z,99.90
2019-01-31T01:51:52.822Z,99.90
2019-01-31T01:55:14.695Z,99.90
2019-01-31T01:58:46.839Z,99.90
2019-01-31T02:02:29.984Z,99.90
2019-01-31T02:06:17.766Z,99.90
2019-01-31T02:09:53.815Z,99.90
2019-01-31T02:13:14.025Z,99.90
2019-01-31T02:16:14.929Z,99.90
2019-01-31T02:20:00.000Z,99.90
2019-01-31T02:23:06.729Z,99.90
2019-01-31T02:26:38.840Z,99.90
2019-01-31T02:29:48.698Z,99.90
2019-01-31T02:32:57.024Z,99.90
2019-01-31T02:36:07.238Z,99.90
2019-01-31T02:39:18.816Z,99.90
2019-01-31T02:42:35.130Z,99.90
2019-01-31T02:46:05.968Z,99.90
2019-01-31T02:48:53.720Z,99.90
2019-01-31T02:52:13.585Z,99.90
2019-01-31T02:55:25.805Z,99.90
2019-01-31T02:58:51.423Z,99.90
2019-01-31T03:02:01.671Z,99.90
2019-01-31T03:05:20.877Z,99.90
2019-01-31T03:08:42.605Z,99.90
2019-01-31T03:11:48.539Z,99.90
2019-01-31T03:14:51.609Z,99.90
2019-01-31T03:18:24.886Z,99.90
2019-01-31T03:22:05.657Z,99.90
2019-01-31T03:25:06.283Z,99.90
2019-01-31T03:28:22.625Z,99.90
2019-01-31T03:32:02.376Z,99.90
2019-01-31T03:35:10.571Z,99.90
2019-01-31T03:38:33.698Z,99.90
2019-01-31T03:41:42.337Z,99.90
2019-01-31T03:44:38.265Z,99.90
2019-01-31T03:48:03.173Z,99.90
2019-01-31T03:51:19.722Z,99.90
2019-01-31T03:54:28.987Z,99.90
2019-01-31T03:57:44.275Z,99.90
2019-01-31T04:01:22.885Z,99.90
2019-01-31T04:04:16.609Z,99.90
2019-01-31T04:06:47.350Z,99.90
2019-01-31T04:09:17.780Z,99.90
2019-01-31T04:11:48.123Z,99.90
2019-01-31T04:14:18.776Z,99.90
2019-01-31T04:16:49.331Z,99.90
2019-01-31T04:19:19.788Z,99.90
2019-01-31T04:21:50.368Z,99.90
2019-01-31T04:24:20.880Z,99.90
2019-01-31T04:26:51.346Z,99.90
2019-01-31T04:29:21.583Z,99.90
2019-01-31T04:31:51.978Z,99.90
2019-01-31T04:34:22.404Z,99.90
2019-01-31T04:36:52.794Z,99.90
2019-01-31T04:39:23.342Z,99.90
2019-01-31T04:41:53.956Z,99.90
2019-01-31T04:44:24.470Z,99.90
2019-01-31T04:46:54.775Z,99.90
2019-01-31T04:49:25.147Z,99.90
2019-01-31T04:51:55.614Z,99.90
2019-01-31T04:54:26.051Z,99.90
2019-01-31T04:56:56.664Z,99.90
2019-01-31T04:59:26.978Z,99.90
2019-01-31T05:01:57.543Z,99.90
2019-01-31T05:04:28.009Z,99.90
2019-01-31T05:06:58.743Z,99.90
2019-01-31T05:09:29.094Z,99.90
2019-01-31T05:11:59.553Z,99.90
2019-01-31T05:14:30.007Z,99.90
2019-01-31T05:17:00.449Z,99.90
2019-01-31T05:19:30.745Z,99.90
2019-01-31T05:22:01.254Z,99.90
2019-01-31T05:24:31.682Z,99.90
2019-01-31T05:27:04.411Z,99.90
2019-01-31T05:29:40.680Z,99.90
2019-01-31T05:32:11.613Z,99.90
2019-01-31T05:34:41.935Z,99.90
2019-01-31T05:37:12.246Z,99.90
2019-01-31T05:39:43.136Z,99.90
2019-01-31T05:42:13.518Z,99.90
2019-01-31T05:44:43.906Z,99.90
2019-01-31T05:47:14.659Z,99.90
2019-01-31T05:49:45.022Z,99.90
2019-01-31T05:52:15.377Z,99.90
2019-01-31T05:54:45.869Z,99.90
2019-01-31T05:57:16.476Z,99.90
2019-01-31T05:59:46.794Z,99.90
2019-01-31T06:02:17.493Z,99.90
2019-01-31T06:04:47.854Z,99.90
2019-01-31T06:07:18.211Z,99.90
2019-01-31T06:09:48.769Z,99.90
2019-01-31T06:12:19.189Z,99.90
2019-01-31T06:14:49.804Z,99.90
2019-01-31T06:17:20.243Z,99.90
2019-01-31T06:19:50.650Z,99.90
2019-01-31T06:22:21.307Z,99.90
2019-01-31T06:24:51.850Z,99.90
2019-01-31T06:27:22.460Z,99.90
2019-01-31T06:29:52.848Z,99.90
2019-01-31T06:32:23.473Z,99.90
2019-01-31T06:34:53.906Z,99.90
2019-01-31T06:37:24.549Z,99.90
2019-01-31T06:39:54.931Z,99.90
2019-01-31T06:42:25.409Z,99.90
2019-01-31T06:44:55.782Z,99.90
2019-01-31T06:47:26.232Z,99.90
2019-01-31T06:49:56.522Z,99.90
2019-01-31T06:52:26.822Z,99.90
2019-01-31T06:54:57.236Z,99.90
2019-01-31T06:57:27.567Z,99.90
2019-01-31T06:59:57.885Z,99.90
2019-01-31T07:02:28.359Z,99.90
2019-01-31T07:04:58.739Z,99.90
2019-01-31T07:07:29.082Z,99.90
2019-01-31T07:09:59.668Z,99.90
2019-01-31T07:12:29.968Z,99.90
2019-01-31T07:15:00.332Z,99.90
2019-01-31T07:17:31.175Z,99.90
2019-01-31T07:20:01.618Z,99.90
2019-01-31T07:22:32.066Z,99.90
2019-01-31T07:25:02.397Z,99.90
2019-01-31T07:27:33.073Z,99.90
2019-01-31T07:30:03.664Z,99.90
2019-01-31T07:32:34.224Z,99.90
2019-01-31T07:35:05.544Z,99.90
2019-01-31T07:37:35.905Z,99.90
2019-01-31T07:40:07.610Z,99.90
2019-01-31T07:42:38.040Z,99.90
2019-01-31T07:45:16.767Z,99.90
2019-01-31T07:47:47.433Z,99.90
2019-01-31T07:50:18.216Z,99.90
2019-01-31T07:52:48.975Z,99.90
2019-01-31T07:55:19.706Z,99.90
2019-01-31T07:57:50.438Z,99.90
2019-01-31T08:00:22.199Z,99.90
2019-01-31T08:02:53.512Z,99.90
2019-01-31T08:05:24.109Z,99.90
2019-01-31T08:07:55.973Z,99.90
2019-01-31T08:10:39.414Z,99.90
2019-01-31T08:13:09.863Z,99.90
2019-01-31T08:15:40.643Z,99.90
2019-01-31T08:18:11.246Z,99.90
2019-01-31T08:20:41.710Z,99.90
2019-01-31T08:23:12.413Z,99.90
2019-01-31T08:25:43.204Z,99.90
2019-01-31T08:28:14.254Z,99.90
2019-01-31T08:30:45.202Z,99.90
2019-01-31T08:33:15.660Z,99.90
2019-01-31T08:35:46.117Z,99.90
2019-01-31T08:38:16.581Z,99.90
2019-01-31T08:40:47.359Z,99.90
2019-01-31T08:43:20.428Z,99.90
2019-01-31T08:45:50.429Z,99.90
2019-01-31T08:48:20.686Z,99.90
2019-01-31T08:50:51.167Z,99.90
2019-01-31T08:53:21.572Z,99.90
2019-01-31T08:55:51.952Z,99.70
2019-01-31T08:58:22.395Z,98.10
2019-01-31T09:00:53.021Z,96.70
2019-01-31T09:03:23.743Z,95.70
2019-01-31T09:05:54.072Z,93.90
2019-01-31T09:08:24.448Z,93.20
2019-01-31T09:10:54.920Z,91.90
2019-01-31T09:13:28.481Z,92.20
2019-01-31T09:15:58.785Z,92.70
2019-01-31T09:18:29.409Z,92.10
2019-01-31T09:21:26.205Z,92.50
2019-01-31T09:25:16.829Z,90.50
2019-01-31T09:28:56.398Z,90.60
2019-01-31T09:32:13.746Z,89.20
2019-01-31T09:35:11.027Z,90.40
2019-01-31T09:38:22.347Z,91.50
2019-01-31T09:41:17.461Z,92.20
2019-01-31T09:44:24.506Z,94.90
2019-01-31T09:47:53.773Z,97.40
2019-01-31T09:51:13.309Z,99.90
2019-01-31T09:54:21.843Z,99.90
2019-01-31T09:57:43.102Z,99.90
2019-01-31T10:01:09.694Z,99.90
2019-01-31T10:04:21.826Z,99.90
2019-01-31T10:07:45.938Z,99.90
2019-01-31T10:11:05.640Z,99.90
2019-01-31T10:14:39.300Z,99.90
2019-01-31T10:18:05.651Z,99.90
2019-01-31T10:21:38.975Z,99.90
2019-01-31T10:24:46.726Z,99.20
2019-01-31T10:28:22.327Z,97.30
2019-01-31T10:31:28.065Z,96.20
2019-01-31T10:35:07.126Z,95.10
2019-01-31T10:38:25.147Z,93.80
2019-01-31T10:41:50.815Z,94.80
2019-01-31T10:45:25.723Z,95.50
2019-01-31T10:48:42.239Z,97.10
2019-01-31T10:52:25.081Z,97.20
2019-01-31T10:56:01.237Z,99.10
2019-01-31T10:59:43.815Z,99.90
2019-01-31T11:05:52.840Z,99.90
2019-01-31T11:08:46.099Z,99.90
2019-01-31T11:12:09.618Z,99.90
2019-01-31T11:15:46.932Z,99.90
2019-01-31T11:19:12.136Z,99.90
2019-01-31T11:22:34.483Z,99.90
2019-01-31T11:26:12.322Z,99.90
2019-01-31T11:29:42.403Z,99.90
2019-01-31T11:33:09.136Z,99.90
2019-01-31T11:36:28.428Z,99.90
2019-01-31T11:39:20.913Z,99.90
2019-01-31T11:42:54.231Z,99.90
2019-01-31T11:46:37.892Z,99.90
2019-01-31T11:50:14.189Z,99.90
2019-01-31T11:53:21.026Z,99.90
2019-01-31T11:56:41.703Z,99.90
2019-01-31T11:59:11.966Z,99.90
2019-01-31T12:01:42.427Z,99.90
2019-01-31T12:04:18.407Z,99.90
2019-01-31T12:06:48.821Z,99.90
2019-01-31T12:09:23.051Z,99.90
2019-01-31T12:11:53.583Z,99.90
2019-01-31T12:14:23.920Z,99.90
2019-01-31T12:16:54.175Z,99.90
2019-01-31T12:19:24.683Z,99.90
2019-01-31T12:21:55.208Z,99.90
2019-01-31T12:24:25.733Z,99.90
2019-01-31T12:26:56.258Z,99.90
2019-01-31T12:29:26.423Z,99.90
2019-01-31T12:31:56.954Z,99.90
2019-01-31T12:34:27.040Z,99.90
2019-01-31T12:36:57.357Z,99.90
2019-01-31T12:39:27.762Z,98.10
2019-01-31T12:41:58.104Z,95.70
2019-01-31T12:44:28.421Z,93.40
2019-01-31T12:46:58.875Z,88.90
2019-01-31T12:49:29.270Z,87.30
2019-01-31T12:52:00.133Z,86.20
2019-01-31T12:54:30.641Z,80.70
2019-01-31T12:57:00.881Z,80.80
2019-01-31T12:59:31.606Z,82.00
2019-01-31T13:02:02.568Z,80.20
2019-01-31T13:04:33.087Z,80.20
2019-01-31T13:07:04.204Z,77.20
2019-01-31T13:09:34.990Z,74.50
2019-01-31T13:12:05.804Z,77.00
2019-01-31T13:14:36.276Z,78.00
2019-01-31T13:17:07.899Z,84.70
2019-01-31T13:19:38.134Z,89.20
2019-01-31T13:22:08.541Z,93.10
2019-01-31T13:24:38.717Z,93.10
2019-01-31T13:27:09.031Z,93.80
2019-01-31T13:29:39.391Z,95.70
2019-01-31T13:32:09.751Z,95.70
2019-01-31T13:34:39.923Z,96.40
2019-01-31T13:37:10.493Z,96.40
2019-01-31T13:39:41.082Z,96.80
2019-01-31T13:42:11.331Z,97.00
2019-01-31T13:44:41.725Z,96.50
2019-01-31T13:47:12.115Z,97.00
2019-01-31T13:49:42.509Z,96.10
2019-01-31T13:52:12.863Z,96.70
2019-01-31T13:54:43.231Z,96.70
2019-01-31T13:57:13.702Z,98.20
2019-01-31T13:59:44.375Z,95.80
2019-01-31T14:02:14.617Z,94.90
2019-01-31T14:04:44.916Z,93.90
2019-01-31T14:07:15.096Z,95.30
2019-01-31T14:09:45.449Z,94.60
2019-01-31T14:12:15.706Z,95.90
2019-01-31T14:14:45.934Z,96.40
2019-01-31T14:17:16.260Z,97.50
2019-01-31T14:19:46.623Z,99.80
2019-01-31T14:22:16.930Z,97.60
2019-01-31T14:24:47.193Z,96.00
2019-01-31T14:27:17.699Z,96.00
2019-01-31T14:29:48.218Z,94.80
2019-01-31T14:32:20.689Z,94.10
2019-01-31T14:34:50.967Z,93.20
2019-01-31T14:37:21.230Z,92.20
2019-01-31T14:39:51.738Z,91.70
2019-01-31T14:42:22.092Z,90.40
2019-01-31T14:44:52.709Z,91.60
2019-01-31T14:47:23.317Z,91.60
2019-01-31T14:49:53.818Z,90.80
2019-01-31T14:52:24.360Z,90.00
2019-01-31T14:54:54.966Z,90.20
2019-01-31T14:57:25.785Z,90.80
2019-01-31T14:59:56.269Z,89.30
2019-01-31T15:02:26.912Z,92.70
2019-01-31T15:04:57.426Z,91.20
2019-01-31T15:07:27.950Z,91.80
2019-01-31T15:09:58.370Z,92.90
2019-01-31T15:12:28.907Z,93.30
2019-01-31T15:14:59.697Z,91.80
2019-01-31T15:17:30.522Z,90.50
2019-01-31T15:20:01.098Z,86.70
2019-01-31T15:22:31.556Z,87.60
2019-01-31T15:25:02.320Z,87.30
2019-01-31T15:27:32.855Z,86.80
2019-01-31T15:30:03.293Z,88.60
2019-01-31T15:32:33.829Z,90.50
2019-01-31T15:35:05.082Z,92.30
2019-01-31T15:37:35.646Z,94.30
2019-01-31T15:40:09.845Z,96.10
2019-01-31T15:42:40.331Z,98.20
2019-01-31T15:45:10.939Z,98.10
2019-01-31T15:47:41.126Z,98.60
2019-01-31T15:50:13.039Z,99.30
2019-01-31T15:52:43.440Z,99.90
2019-01-31T15:55:16.545Z,99.90
2019-01-31T15:57:46.969Z,99.90
2019-01-31T16:00:46.890Z,99.90
2019-01-31T16:03:22.529Z,99.90
2019-01-31T16:05:53.081Z,99.90
2019-01-31T16:08:23.910Z,99.90
2019-01-31T16:10:54.422Z,99.90
2019-01-31T16:13:25.129Z,99.90
2019-01-31T16:15:55.808Z,99.90
2019-01-31T16:18:26.247Z,99.90
2019-01-31T16:20:56.569Z,99.90
2019-01-31T16:23:27.010Z,99.90
2019-01-31T16:25:57.295Z,99.90
2019-01-31T16:28:27.735Z,99.90
2019-01-31T16:30:58.279Z,99.90
2019-01-31T16:33:29.042Z,99.90
2019-01-31T16:35:59.283Z,99.90
2019-01-31T16:38:29.969Z,99.90
2019-01-31T16:41:00.444Z,99.90
2019-01-31T16:43:31.219Z,99.90
2019-01-31T16:46:02.465Z,99.90
2019-01-31T16:48:33.104Z,99.90
2019-01-31T16:51:03.613Z,99.90
2019-01-31T16:53:34.382Z,99.90
2019-01-31T16:56:05.022Z,99.90
2019-01-31T16:58:35.532Z,99.90
2019-01-31T17:01:06.959Z,99.90
2019-01-31T17:03:37.916Z,99.90
2019-01-31T17:06:10.585Z,99.90
2019-01-31T17:08:41.604Z,99.90
2019-01-31T17:11:12.504Z,99.90
2019-01-31T17:13:42.915Z,99.90
2019-01-31T17:16:13.519Z,99.90
2019-01-31T17:18:44.305Z,99.90
2019-01-31T17:21:14.986Z,99.90
2019-01-31T17:23:45.695Z,99.90
2019-01-31T17:26:16.536Z,99.90
2019-01-31T17:28:47.656Z,99.90
2019-01-31T17:31:18.827Z,99.90
2019-01-31T17:33:49.540Z,99.90
2019-01-31T17:36:20.513Z,99.90
2019-01-31T17:38:51.354Z,99.90
2019-01-31T17:41:22.061Z,99.90
2019-01-31T17:43:53.160Z,99.90
2019-01-31T17:46:23.923Z,99.90
2019-01-31T17:48:54.711Z,99.90
2019-01-31T17:51:26.049Z,99.90
2019-01-31T17:53:57.183Z,99.90
2019-01-31T17:56:28.536Z,99.90
2019-01-31T17:58:59.192Z,99.90
2019-01-31T18:01:30.054Z,99.90
2019-01-31T18:04:00.611Z,99.90
2019-01-31T18:06:31.329Z,99.90
2019-01-31T18:09:02.204Z,99.90
2019-01-31T18:11:33.330Z,99.90
2019-01-31T18:14:04.180Z,99.90
2019-01-31T18:16:34.876Z,99.90
2019-01-31T18:19:05.617Z,99.90
2019-01-31T18:21:36.112Z,99.90
2019-01-31T18:24:07.028Z,99.90
2019-01-31T18:26:37.528Z,99.90
2019-01-31T18:29:08.109Z,99.90
2019-01-31T18:31:39.166Z,99.90
2019-01-31T18:34:10.048Z,99.90
2019-01-31T18:36:40.961Z,99.90
2019-01-31T18:39:13.164Z,99.90
2019-01-31T18:41:44.164Z,99.90
2019-01-31T18:44:15.479Z,99.90
2019-01-31T18:46:46.985Z,99.90
2019-01-31T18:49:18.451Z,99.90
2019-01-31T18:51:50.089Z,99.90
2019-01-31T18:54:22.004Z,99.90
2019-01-31T18:56:54.328Z,99.90
2019-01-31T18:59:26.466Z,99.90
2019-01-31T19:01:58.927Z,99.90
2019-01-31T19:04:30.823Z,99.90
2019-01-31T19:07:02.709Z,99.90
2019-01-31T19:09:34.659Z,99.90
2019-01-31T19:12:06.211Z,99.90
2019-01-31T19:14:38.205Z,99.90
2019-01-31T19:17:10.705Z,99.90
2019-01-31T19:19:42.813Z,99.90
2019-01-31T19:22:15.111Z,99.90
2019-01-31T19:24:47.163Z,99.90
2019-01-31T19:27:19.381Z,99.90
2019-01-31T19:29:51.818Z,99.90
2019-01-31T19:32:25.545Z,99.90
2019-01-31T19:34:58.297Z,99.90
2019-01-31T19:37:30.800Z,99.90
2019-01-31T19:40:03.006Z,99.90
2019-01-31T19:42:35.421Z,99.90
2019-01-31T19:45:10.167Z,99.90
2019-01-31T19:47:42.892Z,99.90
2019-01-31T19:50:15.354Z,99.90
2019-01-31T19:52:47.926Z,99.90
2019-01-31T19:55:20.730Z,99.90
2019-01-31T19:57:53.111Z,99.90
2019-01-31T20:00:25.472Z,99.90
2019-01-31T20:02:57.814Z,99.90
2019-01-31T20:05:30.523Z,99.90
2019-01-31T20:08:04.952Z,99.90
2019-01-31T20:10:37.212Z,99.90
2019-01-31T20:13:09.726Z,99.90
2019-01-31T20:15:42.334Z,99.90
2019-01-31T20:18:15.243Z,99.90
2019-01-31T20:20:47.132Z,99.90
2019-01-31T20:23:29.732Z,99.90
2019-01-31T20:26:01.903Z,99.90
2019-01-31T20:28:34.296Z,99.90
2019-01-31T20:31:06.506Z,99.90
2019-01-31T20:33:38.413Z,99.90
2019-01-31T20:36:10.688Z,99.90
2019-01-31T20:38:42.961Z,99.90
2019-01-31T20:41:14.964Z,99.90
2019-01-31T20:43:47.359Z,99.90
2019-01-31T20:46:19.261Z,99.90
2019-01-31T20:48:51.105Z,99.90
2019-01-31T20:51:22.802Z,99.90
2019-01-31T20:53:54.959Z,99.90
2019-01-31T20:56:26.875Z,99.90
2019-01-31T20:58:58.380Z,99.90
2019-01-31T21:01:30.292Z,99.90
2019-01-31T21:04:01.683Z,99.90
2019-01-31T21:06:41.238Z,99.90
2019-01-31T21:09:09.673Z,99.90
2019-01-31T21:11:41.274Z,99.90
2019-01-31T21:14:12.649Z,99.90
2019-01-31T21:16:51.271Z,99.90
2019-01-31T21:19:17.662Z,99.90
2019-01-31T21:21:49.245Z,99.90
2019-01-31T21:24:20.611Z,99.90
2019-01-31T21:26:52.475Z,99.90
2019-01-31T21:29:24.032Z,99.90
2019-01-31T21:31:55.173Z,99.90
2019-01-31T21:34:27.126Z,99.90
2019-01-31T21:36:58.734Z,99.90
2019-01-31T21:39:30.058Z,99.90
2019-01-31T21:42:01.735Z,99.90
2019-01-31T21:44:33.402Z,99.90
2019-01-31T21:47:05.246Z,99.90
2019-01-31T21:49:36.344Z,99.90
2019-01-31T21:52:08.063Z,99.90
2019-01-31T21:54:38.985Z,99.90
2019-01-31T21:57:09.655Z,99.90
2019-01-31T21:59:40.167Z,99.90
2019-01-31T22:02:10.689Z,99.90
2019-01-31T22:04:41.097Z,99.90
2019-01-31T22:07:11.612Z,99.90
2019-01-31T22:09:42.133Z,99.90
2019-01-31T22:12:13.926Z,99.90
2019-01-31T22:14:44.616Z,99.90
2019-01-31T22:17:15.140Z,99.90
2019-01-31T22:19:45.533Z,99.90
2019-01-31T22:22:16.305Z,99.90
2019-01-31T22:24:46.598Z,99.90
2019-01-31T22:27:16.944Z,99.90
2019-01-31T22:29:47.416Z,99.90
2019-01-31T22:32:18.257Z,99.90
2019-01-31T22:34:49.116Z,99.90
2019-01-31T22:37:19.414Z,99.90
2019-01-31T22:39:49.693Z,99.90
2019-01-31T22:42:20.501Z,99.90
2019-01-31T22:44:51.203Z,99.90
2019-01-31T22:47:26.245Z,99.90
2019-01-31T22:49:54.995Z,99.90
2019-01-31T22:52:25.688Z,99.90
2019-01-31T22:54:56.672Z,99.90
2019-01-31T22:57:27.657Z,99.90
2019-01-31T22:59:57.879Z,99.90
2019-01-31T23:02:31.477Z,99.90
2019-01-31T23:07:31.831Z,99.90
2019-01-31T23:10:02.112Z,99.90
2019-01-31T23:12:32.468Z,99.90
2019-01-31T23:15:02.741Z,99.90
2019-01-31T23:17:37.284Z,99.90
2019-01-31T23:20:08.706Z,99.90
2019-01-31T23:22:39.016Z,99.90
2019-01-31T23:25:10.005Z,99.90
2019-01-31T23:27:40.354Z,99.90
2019-01-31T23:30:11.879Z,99.90
2019-01-31T23:32:42.160Z,99.90
2019-01-31T23:35:13.927Z,99.90
2019-01-31T23:37:44.195Z,99.90
2019-01-31T23:40:15.080Z,99.90
2019-01-31T23:42:45.319Z,99.90
2019-01-31T23:45:16.067Z,99.90
2019-01-31T23:47:48.812Z,99.90
2019-01-31T23:50:19.249Z,99.90
2019-01-31T23:52:49.425Z,99.90
2019-01-31T23:55:19.899Z,99.90
2019-01-31T23:57:50.280Z,99.90
